Terminal Aerodrome Forecast
Issued by NWS Jackson, MS

Current Version | Previous Version | Text Only | Print | Product List | Glossary On
Versions: 1 2 3 4 5 6 7 8 9 10 11 12
000
FTUS44 KMEG 042337
TAFTUP
TAF
KTUP 042337Z 0500/0524 00000KT P6SM SCT250
     FM051000 00000KT 5SM BR SCT250
     FM051400 23004KT P6SM SCT120 SCT250
     FM052100 23006KT P6SM VCTS BKN060CB OVC120=

USA.gov is the U.S. government's official web portal to all federal, state and local government web resources and services.